createdAt,value
2018-06-15T00:00:14.554Z,1009.98
2018-06-15T00:00:40.688Z,1010
2018-06-15T00:01:06.830Z,1009.99
2018-06-15T00:01:32.970Z,1010.01
2018-06-15T00:01:59.150Z,1010.01
2018-06-15T00:02:25.298Z,1010.05
2018-06-15T00:02:51.464Z,1009.99
2018-06-15T00:03:17.602Z,1010.03
2018-06-15T00:03:43.760Z,1010.02
2018-06-15T00:04:09.907Z,1010.02
2018-06-15T00:04:36.071Z,1010.05
2018-06-15T00:05:02.215Z,1010.04
2018-06-15T00:05:28.370Z,1010.04
2018-06-15T00:05:54.508Z,1010.02
2018-06-15T00:06:20.649Z,1010.04
2018-06-15T00:06:46.816Z,1010
2018-06-15T00:07:12.953Z,1010.03
2018-06-15T00:07:39.092Z,1010.02
2018-06-15T00:08:05.287Z,1010.03
2018-06-15T00:08:31.421Z,1010.01
2018-06-15T00:08:57.567Z,1010.01
2018-06-15T00:09:23.698Z,1009.99
2018-06-15T00:09:49.845Z,1010.01
2018-06-15T00:10:16.006Z,1010.01
2018-06-15T00:10:42.150Z,1009.96
2018-06-15T00:11:08.288Z,1009.99
2018-06-15T00:11:34.426Z,1009.95
2018-06-15T00:12:00.564Z,1009.99
2018-06-15T00:12:26.707Z,1009.96
2018-06-15T00:12:52.848Z,1009.96
2018-06-15T00:13:18.993Z,1009.99
2018-06-15T00:13:45.154Z,1009.93
2018-06-15T00:14:11.297Z,1009.96
2018-06-15T00:14:37.433Z,1009.93
2018-06-15T00:15:03.620Z,1009.94
2018-06-15T00:15:29.757Z,1009.93
2018-06-15T00:15:55.895Z,1009.97
2018-06-15T00:16:22.040Z,1009.96
2018-06-15T00:16:48.213Z,1009.93
2018-06-15T00:17:14.349Z,1009.97
2018-06-15T00:17:40.490Z,1009.97
2018-06-15T00:18:06.632Z,1009.95
2018-06-15T00:18:32.774Z,1009.97
2018-06-15T00:18:58.911Z,1009.97
2018-06-15T00:19:25.067Z,1009.96
2018-06-15T00:19:51.217Z,1009.97
2018-06-15T00:20:17.368Z,1009.98
2018-06-15T00:20:43.510Z,1009.98
2018-06-15T00:21:09.642Z,1009.97
2018-06-15T00:21:35.788Z,1009.93
2018-06-15T00:22:01.924Z,1009.97
2018-06-15T00:22:28.064Z,1009.99
2018-06-15T00:22:54.201Z,1010.01
2018-06-15T00:23:20.341Z,1009.99
2018-06-15T00:23:46.472Z,1009.99
2018-06-15T00:24:12.619Z,1009.98
2018-06-15T00:24:38.755Z,1010
2018-06-15T00:25:04.895Z,1009.97
2018-06-15T00:25:31.030Z,1009.94
2018-06-15T00:25:57.197Z,1010.01
2018-06-15T00:26:23.338Z,1009.95
2018-06-15T00:26:49.475Z,1009.96
2018-06-15T00:27:15.613Z,1009.94
2018-06-15T00:27:41.759Z,1009.95
2018-06-15T00:28:07.929Z,1009.97
2018-06-15T00:28:34.062Z,1009.97
2018-06-15T00:29:00.209Z,1009.98
2018-06-15T00:29:26.374Z,1009.96
2018-06-15T00:29:52.516Z,1009.96
2018-06-15T00:30:18.656Z,1009.98
2018-06-15T00:30:44.797Z,1009.95
2018-06-15T00:31:10.959Z,1009.96
2018-06-15T00:31:37.097Z,1010
2018-06-15T00:32:03.245Z,1009.99
2018-06-15T00:32:29.383Z,1009.98
2018-06-15T00:32:55.524Z,1009.96
2018-06-15T00:33:21.666Z,1009.99
2018-06-15T00:33:47.807Z,1009.93
2018-06-15T00:34:13.949Z,1009.96
2018-06-15T00:34:40.082Z,1009.94
2018-06-15T00:35:06.228Z,1009.96
2018-06-15T00:35:32.370Z,1009.97
2018-06-15T00:35:58.506Z,1009.93
2018-06-15T00:36:24.664Z,1009.9
2018-06-15T00:36:50.801Z,1009.93
2018-06-15T00:37:16.963Z,1009.93
2018-06-15T00:37:43.099Z,1009.93
2018-06-15T00:38:09.238Z,1009.92
2018-06-15T00:38:35.383Z,1009.9
2018-06-15T00:39:01.521Z,1009.95
2018-06-15T00:39:27.663Z,1009.93
2018-06-15T00:39:53.802Z,1009.93
2018-06-15T00:40:19.939Z,1009.93
2018-06-15T00:40:46.083Z,1009.91
2018-06-15T00:41:12.249Z,1009.91
2018-06-15T00:41:38.385Z,1009.91
2018-06-15T00:42:04.529Z,1009.95
2018-06-15T00:42:30.668Z,1009.94
2018-06-15T00:42:56.801Z,1009.93
2018-06-15T00:43:22.949Z,1009.93
2018-06-15T00:43:49.085Z,1009.91
2018-06-15T00:44:15.226Z,1009.94
2018-06-15T00:44:41.360Z,1009.89
2018-06-15T00:45:07.502Z,1009.86
2018-06-15T00:45:33.646Z,1009.85
2018-06-15T00:45:59.830Z,1009.87
2018-06-15T00:46:25.967Z,1009.87
2018-06-15T00:46:52.134Z,1009.87
2018-06-15T00:47:18.275Z,1009.87
2018-06-15T00:47:44.415Z,1009.87
2018-06-15T00:48:10.561Z,1009.88
2018-06-15T00:48:36.722Z,1009.89
2018-06-15T00:49:02.949Z,1009.85
2018-06-15T00:49:29.083Z,1009.85
2018-06-15T00:49:55.222Z,1009.85
2018-06-15T00:50:21.413Z,1009.85
2018-06-15T00:50:47.582Z,1009.87
2018-06-15T00:51:13.721Z,1009.87
2018-06-15T00:51:39.869Z,1009.84
2018-06-15T00:52:06.009Z,1009.81
2018-06-15T00:52:32.149Z,1009.84
2018-06-15T00:52:58.310Z,1009.84
2018-06-15T00:53:24.442Z,1009.85
2018-06-15T00:53:50.581Z,1009.85
2018-06-15T00:54:16.718Z,1009.85
2018-06-15T00:54:42.881Z,1009.85
2018-06-15T00:55:09.024Z,1009.85
2018-06-15T00:55:42.274Z,1009.81
2018-06-15T00:56:08.409Z,1009.85
2018-06-15T00:56:34.553Z,1009.88
2018-06-15T00:57:00.716Z,1009.84
2018-06-15T00:57:26.880Z,1009.85
2018-06-15T00:57:53.015Z,1009.87
2018-06-15T00:58:19.165Z,1009.85
2018-06-15T00:58:45.306Z,1009.82
2018-06-15T00:59:11.446Z,1009.85
2018-06-15T00:59:37.581Z,1009.84
2018-06-15T01:00:03.724Z,1009.83
2018-06-15T01:00:29.861Z,1009.8
2018-06-15T01:00:55.997Z,1009.82
2018-06-15T01:01:22.128Z,1009.82
2018-06-15T01:01:48.269Z,1009.8
2018-06-15T01:02:14.418Z,1009.83
2018-06-15T01:02:40.573Z,1009.8
2018-06-15T01:03:06.717Z,1009.8
2018-06-15T01:03:32.880Z,1009.8
2018-06-15T01:03:59.021Z,1009.77
2018-06-15T01:04:25.160Z,1009.79
2018-06-15T01:04:51.299Z,1009.78
2018-06-15T01:05:17.468Z,1009.8
2018-06-15T01:05:43.656Z,1009.8
2018-06-15T01:06:09.816Z,1009.78
2018-06-15T01:06:35.982Z,1009.79
2018-06-15T01:07:02.122Z,1009.77
2018-06-15T01:07:28.285Z,1009.81
2018-06-15T01:07:54.422Z,1009.78
2018-06-15T01:08:20.593Z,1009.79
2018-06-15T01:08:46.753Z,1009.82
2018-06-15T01:09:12.916Z,1009.78
2018-06-15T01:09:39.073Z,1009.78
2018-06-15T01:10:05.214Z,1009.78
2018-06-15T01:10:31.351Z,1009.76
2018-06-15T01:10:57.520Z,1009.77
2018-06-15T01:11:23.657Z,1009.78
2018-06-15T01:11:49.800Z,1009.8
2018-06-15T01:12:15.936Z,1009.77
2018-06-15T01:12:42.072Z,1009.78
2018-06-15T01:13:08.206Z,1009.81
2018-06-15T01:13:34.354Z,1009.79
2018-06-15T01:14:00.490Z,1009.79
2018-06-15T01:14:26.632Z,1009.77
2018-06-15T01:14:52.793Z,1009.8
2018-06-15T01:15:18.961Z,1009.8
2018-06-15T01:15:45.121Z,1009.75
2018-06-15T01:16:11.267Z,1009.77
2018-06-15T01:16:37.422Z,1009.78
2018-06-15T01:17:03.566Z,1009.78
2018-06-15T01:17:29.704Z,1009.75
2018-06-15T01:17:55.847Z,1009.74
2018-06-15T01:18:21.978Z,1009.74
2018-06-15T01:18:48.114Z,1009.74
2018-06-15T01:19:14.258Z,1009.74
2018-06-15T01:19:40.399Z,1009.76
2018-06-15T01:20:06.541Z,1009.74
2018-06-15T01:20:32.687Z,1009.77
2018-06-15T01:20:58.823Z,1009.74
2018-06-15T01:21:24.961Z,1009.73
2018-06-15T01:21:51.103Z,1009.76
2018-06-15T01:22:17.242Z,1009.76
2018-06-15T01:22:43.407Z,1009.75
2018-06-15T01:23:09.548Z,1009.76
2018-06-15T01:23:35.683Z,1009.73
2018-06-15T01:24:01.843Z,1009.76
2018-06-15T01:24:28.010Z,1009.76
2018-06-15T01:24:54.154Z,1009.73
2018-06-15T01:25:20.312Z,1009.75
2018-06-15T01:25:46.474Z,1009.76
2018-06-15T01:26:12.619Z,1009.74
2018-06-15T01:26:38.764Z,1009.73
2018-06-15T01:27:04.899Z,1009.78
2018-06-15T01:27:31.035Z,1009.73
2018-06-15T01:27:57.175Z,1009.75
2018-06-15T01:28:23.310Z,1009.74
2018-06-15T01:28:49.472Z,1009.75
2018-06-15T01:29:15.618Z,1009.73
2018-06-15T01:29:41.805Z,1009.74
2018-06-15T01:30:07.988Z,1009.71
2018-06-15T01:30:34.131Z,1009.71
2018-06-15T01:31:00.292Z,1009.75
2018-06-15T01:31:26.431Z,1009.73
2018-06-15T01:31:52.573Z,1009.71
2018-06-15T01:32:18.738Z,1009.72
2018-06-15T01:32:44.880Z,1009.73
2018-06-15T01:33:11.018Z,1009.75
2018-06-15T01:33:37.154Z,1009.77
2018-06-15T01:34:03.294Z,1009.77
2018-06-15T01:34:29.440Z,1009.79
2018-06-15T01:34:55.600Z,1009.75
2018-06-15T01:35:21.739Z,1009.76
2018-06-15T01:35:47.905Z,1009.78
2018-06-15T01:36:14.048Z,1009.79
2018-06-15T01:36:40.192Z,1009.84
2018-06-15T01:37:06.356Z,1009.78
2018-06-15T01:37:32.494Z,1009.77
2018-06-15T01:37:58.627Z,1009.76
2018-06-15T01:38:24.769Z,1009.78
2018-06-15T01:38:50.911Z,1009.76
2018-06-15T01:39:17.046Z,1009.77
2018-06-15T01:39:43.187Z,1009.76
2018-06-15T01:40:09.331Z,1009.77
2018-06-15T01:40:35.498Z,1009.76
2018-06-15T01:41:01.634Z,1009.75
2018-06-15T01:41:27.798Z,1009.78
2018-06-15T01:41:53.946Z,1009.75
2018-06-15T01:42:20.080Z,1009.79
2018-06-15T01:42:46.218Z,1009.77
2018-06-15T01:43:12.381Z,1009.77
2018-06-15T01:43:38.521Z,1009.75
2018-06-15T01:44:04.667Z,1009.74
2018-06-15T01:44:30.824Z,1009.75
2018-06-15T01:44:56.984Z,1009.71
2018-06-15T01:45:23.120Z,1009.71
2018-06-15T01:45:49.265Z,1009.75
2018-06-15T01:46:15.405Z,1009.72
2018-06-15T01:46:41.543Z,1009.74
2018-06-15T01:47:07.683Z,1009.72
2018-06-15T01:47:33.821Z,1009.72
2018-06-15T01:47:59.963Z,1009.75
2018-06-15T01:48:26.125Z,1009.68
2018-06-15T01:48:52.273Z,1009.76
2018-06-15T01:49:18.412Z,1009.74
2018-06-15T01:49:44.546Z,1009.72
2018-06-15T01:50:10.708Z,1009.72
2018-06-15T01:50:36.844Z,1009.7
2018-06-15T01:51:03.004Z,1009.7
2018-06-15T01:51:29.145Z,1009.68
2018-06-15T01:51:55.318Z,1009.67
2018-06-15T01:52:21.448Z,1009.63
2018-06-15T01:52:47.589Z,1009.66
2018-06-15T01:53:13.731Z,1009.64
2018-06-15T01:53:39.870Z,1009.59
2018-06-15T01:54:06.006Z,1009.61
2018-06-15T01:54:32.181Z,1009.61
2018-06-15T01:54:58.310Z,1009.6
2018-06-15T01:55:24.472Z,1009.63
2018-06-15T01:55:50.608Z,1009.62
2018-06-15T01:56:16.748Z,1009.66
2018-06-15T01:56:42.881Z,1009.64
2018-06-15T01:57:09.026Z,1009.64
2018-06-15T01:57:35.165Z,1009.67
2018-06-15T01:58:01.308Z,1009.64
2018-06-15T01:58:27.438Z,1009.68
2018-06-15T01:58:53.573Z,1009.64
2018-06-15T01:59:19.712Z,1009.68
2018-06-15T01:59:45.857Z,1009.66
2018-06-15T02:00:11.993Z,1009.64
2018-06-15T02:00:38.132Z,1009.61
2018-06-15T02:01:04.320Z,1009.63
2018-06-15T02:01:30.513Z,1009.62
2018-06-15T02:01:56.542Z,1009.66
2018-06-15T02:02:22.683Z,1009.6
2018-06-15T02:02:48.814Z,1009.63
2018-06-15T02:03:14.946Z,1009.62
2018-06-15T02:03:41.116Z,1009.62
2018-06-15T02:04:07.253Z,1009.66
2018-06-15T02:04:33.393Z,1009.62
2018-06-15T02:04:59.551Z,1009.63
2018-06-15T02:05:25.689Z,1009.62
2018-06-15T02:05:51.831Z,1009.63
2018-06-15T02:06:17.968Z,1009.63
2018-06-15T02:06:44.107Z,1009.66
2018-06-15T02:07:10.275Z,1009.63
2018-06-15T02:07:36.419Z,1009.63
2018-06-15T02:08:02.577Z,1009.63
2018-06-15T02:08:28.714Z,1009.6
2018-06-15T02:08:54.853Z,1009.6
2018-06-15T02:09:21.022Z,1009.61
2018-06-15T02:09:47.159Z,1009.62
2018-06-15T02:10:13.302Z,1009.57
2018-06-15T02:10:39.466Z,1009.6
2018-06-15T02:11:05.627Z,1009.63
2018-06-15T02:11:31.764Z,1009.54
2018-06-15T02:11:57.904Z,1009.57
2018-06-15T02:12:24.087Z,1009.57
2018-06-15T02:12:50.224Z,1009.56
2018-06-15T02:13:16.387Z,1009.57
2018-06-15T02:13:42.530Z,1009.54
2018-06-15T02:14:08.681Z,1009.56
2018-06-15T02:14:34.818Z,1009.56
2018-06-15T02:15:00.979Z,1009.53
2018-06-15T02:15:27.119Z,1009.52
2018-06-15T02:15:53.260Z,1009.49
2018-06-15T02:16:19.405Z,1009.48
2018-06-15T02:16:45.541Z,1009.46
2018-06-15T02:17:11.687Z,1009.44
2018-06-15T02:17:37.822Z,1009.46
2018-06-15T02:18:03.960Z,1009.44
2018-06-15T02:18:30.100Z,1009.44
2018-06-15T02:18:56.241Z,1009.43
2018-06-15T02:19:22.381Z,1009.42
2018-06-15T02:19:48.518Z,1009.39
2018-06-15T02:20:14.660Z,1009.41
2018-06-15T02:20:40.795Z,1009.42
2018-06-15T02:21:06.948Z,1009.4
2018-06-15T02:21:33.084Z,1009.43
2018-06-15T02:21:59.229Z,1009.39
2018-06-15T02:22:25.371Z,1009.41
2018-06-15T02:22:51.513Z,1009.41
2018-06-15T02:23:17.646Z,1009.39
2018-06-15T02:23:43.786Z,1009.46
2018-06-15T02:24:09.917Z,1009.4
2018-06-15T02:24:36.059Z,1009.45
2018-06-15T02:25:02.200Z,1009.43
2018-06-15T02:25:28.334Z,1009.43
2018-06-15T02:25:54.472Z,1009.42
2018-06-15T02:26:20.632Z,1009.46
2018-06-15T02:26:46.771Z,1009.44
2018-06-15T02:27:12.914Z,1009.43
2018-06-15T02:27:39.071Z,1009.46
2018-06-15T02:28:05.210Z,1009.43
2018-06-15T02:28:31.354Z,1009.5
2018-06-15T02:28:57.493Z,1009.47
2018-06-15T02:29:23.658Z,1009.43
2018-06-15T02:29:49.794Z,1009.43
2018-06-15T02:30:15.937Z,1009.46
2018-06-15T02:30:42.069Z,1009.48
2018-06-15T02:31:08.258Z,1009.47
2018-06-15T02:31:34.426Z,1009.49
2018-06-15T02:32:00.595Z,1009.5
2018-06-15T02:32:26.796Z,1009.48
2018-06-15T02:32:52.932Z,1009.5
2018-06-15T02:33:19.092Z,1009.53
2018-06-15T02:33:45.252Z,1009.49
2018-06-15T02:34:11.390Z,1009.54
2018-06-15T02:34:37.554Z,1009.56
2018-06-15T02:35:03.742Z,1009.53
2018-06-15T02:35:29.880Z,1009.54
2018-06-15T02:35:56.090Z,1009.53
2018-06-15T02:36:22.284Z,1009.54
2018-06-15T02:36:48.452Z,1009.54
2018-06-15T02:37:14.593Z,1009.57
2018-06-15T02:37:40.725Z,1009.54
2018-06-15T02:38:06.896Z,1009.53
2018-06-15T02:38:33.082Z,1009.54
2018-06-15T02:38:59.238Z,1009.54
2018-06-15T02:39:25.382Z,1009.55
2018-06-15T02:39:51.542Z,1009.54
2018-06-15T02:40:17.717Z,1009.61
2018-06-15T02:40:43.872Z,1009.55
2018-06-15T02:41:10.030Z,1009.57
2018-06-15T02:41:36.188Z,1009.59
2018-06-15T02:42:02.331Z,1009.6
2018-06-15T02:42:28.473Z,1009.57
2018-06-15T02:42:54.642Z,1009.56
2018-06-15T02:43:20.832Z,1009.61
2018-06-15T02:43:46.995Z,1009.59
2018-06-15T02:44:13.186Z,1009.55
2018-06-15T02:44:39.362Z,1009.55
2018-06-15T02:45:05.542Z,1009.58
2018-06-15T02:45:31.761Z,1009.6
2018-06-15T02:45:57.833Z,1009.55
2018-06-15T02:46:24.012Z,1009.58
2018-06-15T02:46:50.176Z,1009.57
2018-06-15T02:47:16.307Z,1009.59
2018-06-15T02:47:42.477Z,1009.59
2018-06-15T02:48:08.617Z,1009.63
2018-06-15T02:48:34.806Z,1009.62
2018-06-15T02:49:00.965Z,1009.64
2018-06-15T02:49:27.144Z,1009.65
2018-06-15T02:49:53.284Z,1009.63
2018-06-15T02:50:19.423Z,1009.68
2018-06-15T02:50:45.564Z,1009.66
2018-06-15T02:51:11.701Z,1009.67
2018-06-15T02:51:37.871Z,1009.69
2018-06-15T02:52:04.052Z,1009.67
2018-06-15T02:52:30.195Z,1009.67
2018-06-15T02:52:56.339Z,1009.64
2018-06-15T02:53:22.471Z,1009.66
2018-06-15T02:53:48.608Z,1009.64
2018-06-15T02:54:14.796Z,1009.69
2018-06-15T02:54:40.935Z,1009.68
2018-06-15T02:55:07.104Z,1009.65
2018-06-15T02:55:33.235Z,1009.65
2018-06-15T02:55:59.372Z,1009.66
2018-06-15T02:56:25.543Z,1009.72
2018-06-15T02:56:51.680Z,1009.71
2018-06-15T02:57:17.864Z,1009.7
2018-06-15T02:57:44.003Z,1009.71
2018-06-15T02:58:10.143Z,1009.71
2018-06-15T02:58:36.316Z,1009.72
2018-06-15T02:59:02.471Z,1009.73
2018-06-15T02:59:28.615Z,1009.76
2018-06-15T02:59:54.778Z,1009.75
2018-06-15T03:00:20.916Z,1009.77
2018-06-15T03:00:47.050Z,1009.76
2018-06-15T03:01:13.234Z,1009.74
2018-06-15T03:01:39.377Z,1009.79
2018-06-15T03:02:05.681Z,1009.78
2018-06-15T03:02:31.977Z,1009.84
2018-06-15T03:02:58.221Z,1009.81
2018-06-15T03:03:24.488Z,1009.82
2018-06-15T03:03:50.836Z,1009.83
2018-06-15T03:04:17.075Z,1009.85
2018-06-15T03:04:43.393Z,1009.83
2018-06-15T03:05:09.524Z,1009.83
2018-06-15T03:05:35.886Z,1009.86
2018-06-15T03:06:02.292Z,1009.88
2018-06-15T03:06:28.424Z,1009.86
2018-06-15T03:06:54.569Z,1009.88
2018-06-15T03:07:20.751Z,1009.87
2018-06-15T03:07:46.883Z,1009.88
2018-06-15T03:08:13.028Z,1009.87
2018-06-15T03:08:39.209Z,1009.92
2018-06-15T03:09:05.352Z,1009.89
2018-06-15T03:09:31.506Z,1009.91
2018-06-15T03:09:57.648Z,1009.92
2018-06-15T03:10:23.815Z,1009.91
2018-06-15T03:10:49.953Z,1009.93
2018-06-15T03:11:16.091Z,1009.93
2018-06-15T03:11:42.249Z,1009.96
2018-06-15T03:12:08.397Z,1009.93
2018-06-15T03:12:34.531Z,1009.93
2018-06-15T03:13:00.672Z,1009.97
2018-06-15T03:13:26.827Z,1009.94
2018-06-15T03:13:52.986Z,1009.93
2018-06-15T03:14:19.124Z,1009.98
2018-06-15T03:14:45.264Z,1009.99
2018-06-15T03:15:11.401Z,1009.98
2018-06-15T03:15:37.620Z,1009.96
2018-06-15T03:16:03.782Z,1009.97
2018-06-15T03:16:30.001Z,1010
2018-06-15T03:16:56.180Z,1009.96
2018-06-15T03:17:22.323Z,1009.99
2018-06-15T03:17:48.466Z,1009.96
2018-06-15T03:18:14.604Z,1009.98
2018-06-15T03:18:40.753Z,1010
2018-06-15T03:19:06.914Z,1009.96
2018-06-15T03:19:33.049Z,1009.97
2018-06-15T03:19:59.188Z,1009.95
2018-06-15T03:20:25.324Z,1009.96
2018-06-15T03:20:51.467Z,1009.95
2018-06-15T03:21:17.605Z,1009.96
2018-06-15T03:21:43.745Z,1010
2018-06-15T03:22:09.878Z,1009.96
2018-06-15T03:22:36.025Z,1010
2018-06-15T03:23:02.161Z,1009.96
2018-06-15T03:23:28.300Z,1009.96
2018-06-15T03:23:54.463Z,1009.98
2018-06-15T03:24:20.624Z,1010.03
2018-06-15T03:24:46.790Z,1010.03
2018-06-15T03:25:12.951Z,1010
2018-06-15T03:25:39.066Z,1010.04
2018-06-15T03:26:05.206Z,1010.01
2018-06-15T03:26:31.349Z,1010.03
2018-06-15T03:26:57.508Z,1010
2018-06-15T03:27:23.646Z,1010.02
2018-06-15T03:27:49.780Z,1010.05
2018-06-15T03:28:15.921Z,1010.02
2018-06-15T03:28:42.085Z,1010.01
2018-06-15T03:29:08.218Z,1009.97
2018-06-15T03:29:34.352Z,1010.04
2018-06-15T03:30:00.539Z,1010
2018-06-15T03:30:26.710Z,1010.02
2018-06-15T03:30:52.875Z,1009.99
2018-06-15T03:31:19.036Z,1010
2018-06-15T03:31:45.206Z,1009.96
2018-06-15T03:32:11.389Z,1009.99
2018-06-15T03:32:37.529Z,1009.98
2018-06-15T03:33:03.691Z,1010.01
2018-06-15T03:33:29.840Z,1010
2018-06-15T03:33:55.974Z,1009.98
2018-06-15T03:34:22.159Z,1009.98
2018-06-15T03:34:48.299Z,1010
2018-06-15T03:35:14.442Z,1010
2018-06-15T03:35:40.616Z,1010
2018-06-15T03:36:06.747Z,1010.02
2018-06-15T03:36:32.913Z,1010
2018-06-15T03:36:59.051Z,1010.04
2018-06-15T03:37:25.196Z,1010.01
2018-06-15T03:37:51.358Z,1010.04
2018-06-15T03:38:17.494Z,1010.03
2018-06-15T03:38:43.638Z,1010
2018-06-15T03:39:09.797Z,1010.04
2018-06-15T03:39:35.967Z,1010.03
2018-06-15T03:40:02.109Z,1010.04
2018-06-15T03:40:28.249Z,1010.05
2018-06-15T03:40:54.390Z,1010.02
2018-06-15T03:41:20.558Z,1010.04
2018-06-15T03:41:46.694Z,1010.06
2018-06-15T03:42:12.835Z,1010.04
2018-06-15T03:42:38.976Z,1010.02
2018-06-15T03:43:05.108Z,1010.07
2018-06-15T03:43:31.253Z,1010.07
2018-06-15T03:43:57.392Z,1010.02
2018-06-15T03:44:23.528Z,1010.05
2018-06-15T03:44:49.693Z,1010.06
2018-06-15T03:45:15.833Z,1010.05
2018-06-15T03:45:41.998Z,1010.06
2018-06-15T03:46:08.139Z,1010.07
2018-06-15T03:46:34.299Z,1010.06
2018-06-15T03:47:00.442Z,1010.08
2018-06-15T03:47:26.583Z,1010.07
2018-06-15T03:47:52.717Z,1010.1
2018-06-15T03:48:18.852Z,1010.12
2018-06-15T03:48:45.020Z,1010.11
2018-06-15T03:49:11.161Z,1010.1
2018-06-15T03:49:37.300Z,1010.08
2018-06-15T03:50:03.435Z,1010.13
2018-06-15T03:50:29.574Z,1010.15
2018-06-15T03:50:55.713Z,1010.14
2018-06-15T03:51:21.856Z,1010.15
2018-06-15T03:51:48.014Z,1010.16
2018-06-15T03:52:14.146Z,1010.15
2018-06-15T03:52:40.314Z,1010.17
2018-06-15T03:53:06.453Z,1010.14
2018-06-15T03:53:32.597Z,1010.15
2018-06-15T03:53:58.735Z,1010.17
2018-06-15T03:54:24.877Z,1010.2
2018-06-15T03:54:51.015Z,1010.16
2018-06-15T03:55:17.155Z,1010.17
2018-06-15T03:55:43.307Z,1010.17
2018-06-15T03:56:09.443Z,1010.17
2018-06-15T03:56:35.582Z,1010.17
2018-06-15T03:57:01.726Z,1010.21
2018-06-15T03:57:27.893Z,1010.21
2018-06-15T03:57:54.029Z,1010.19
2018-06-15T03:58:20.188Z,1010.21
2018-06-15T03:58:46.325Z,1010.2
2018-06-15T03:59:12.492Z,1010.24
2018-06-15T03:59:38.629Z,1010.24
2018-06-15T04:00:04.769Z,1010.25
2018-06-15T04:00:30.905Z,1010.28
2018-06-15T04:00:57.047Z,1010.24
2018-06-15T04:01:23.192Z,1010.26
2018-06-15T04:01:49.332Z,1010.29
2018-06-15T04:02:15.470Z,1010.29
2018-06-15T04:02:41.610Z,1010.26
2018-06-15T04:03:07.766Z,1010.3
2018-06-15T04:03:33.954Z,1010.28
2018-06-15T04:04:00.091Z,1010.25
2018-06-15T04:04:26.234Z,1010.26
2018-06-15T04:04:52.370Z,1010.27
2018-06-15T04:05:18.507Z,1010.3
2018-06-15T04:05:44.643Z,1010.32
2018-06-15T04:06:10.787Z,1010.32
2018-06-15T04:06:36.927Z,1010.28
2018-06-15T04:07:03.071Z,1010.28
2018-06-15T04:07:29.250Z,1010.29
2018-06-15T04:07:55.385Z,1010.28
2018-06-15T04:08:21.522Z,1010.28
2018-06-15T04:08:47.663Z,1010.31
2018-06-15T04:09:13.800Z,1010.29
2018-06-15T04:09:39.959Z,1010.3
2018-06-15T04:10:06.134Z,1010.3
2018-06-15T04:10:32.290Z,1010.32
2018-06-15T04:10:58.427Z,1010.32
2018-06-15T04:11:24.597Z,1010.34
2018-06-15T04:11:50.741Z,1010.29
2018-06-15T04:12:16.906Z,1010.31
2018-06-15T04:12:43.044Z,1010.33
2018-06-15T04:13:09.226Z,1010.33
2018-06-15T04:13:35.384Z,1010.34
2018-06-15T04:14:01.530Z,1010.31
2018-06-15T04:14:27.668Z,1010.31
2018-06-15T04:14:53.806Z,1010.35
2018-06-15T04:15:19.946Z,1010.34
2018-06-15T04:15:46.116Z,1010.33
2018-06-15T04:16:12.256Z,1010.33
2018-06-15T04:16:38.389Z,1010.32
2018-06-15T04:17:04.556Z,1010.36
2018-06-15T04:17:30.690Z,1010.35
2018-06-15T04:17:56.835Z,1010.32
2018-06-15T04:18:22.997Z,1010.34
2018-06-15T04:18:49.139Z,1010.37
2018-06-15T04:19:15.281Z,1010.36
2018-06-15T04:19:41.491Z,1010.35
2018-06-15T04:20:07.580Z,1010.35
2018-06-15T04:20:33.722Z,1010.3
2018-06-15T04:20:59.871Z,1010.35
2018-06-15T04:21:26.012Z,1010.35
2018-06-15T04:21:52.182Z,1010.31
2018-06-15T04:22:18.347Z,1010.33
2018-06-15T04:22:44.482Z,1010.32
2018-06-15T04:23:10.630Z,1010.31
2018-06-15T04:23:36.798Z,1010.32
2018-06-15T04:24:02.933Z,1010.36
2018-06-15T04:24:29.077Z,1010.35
2018-06-15T04:24:55.213Z,1010.34
2018-06-15T04:25:21.353Z,1010.35
2018-06-15T04:25:47.488Z,1010.38
2018-06-15T04:26:13.629Z,1010.35
2018-06-15T04:26:39.822Z,1010.41
2018-06-15T04:27:05.959Z,1010.4
2018-06-15T04:27:32.099Z,1010.41
2018-06-15T04:27:58.262Z,1010.4
2018-06-15T04:28:24.400Z,1010.43
2018-06-15T04:28:50.539Z,1010.41
2018-06-15T04:29:16.699Z,1010.38
2018-06-15T04:29:42.843Z,1010.37
2018-06-15T04:30:08.998Z,1010.41
2018-06-15T04:30:35.130Z,1010.42
2018-06-15T04:31:01.275Z,1010.39
2018-06-15T04:31:27.409Z,1010.38
2018-06-15T04:31:53.546Z,1010.43
2018-06-15T04:32:19.680Z,1010.41
2018-06-15T04:32:45.825Z,1010.38
2018-06-15T04:33:11.962Z,1010.42
2018-06-15T04:33:38.100Z,1010.39
2018-06-15T04:34:04.263Z,1010.44
2018-06-15T04:34:30.426Z,1010.41
2018-06-15T04:34:56.588Z,1010.43
2018-06-15T04:35:22.752Z,1010.44
2018-06-15T04:35:48.889Z,1010.41
2018-06-15T04:36:15.032Z,1010.45
2018-06-15T04:36:41.173Z,1010.43
2018-06-15T04:37:07.316Z,1010.42
2018-06-15T04:37:33.494Z,1010.43
2018-06-15T04:37:59.656Z,1010.4
2018-06-15T04:38:25.798Z,1010.45
2018-06-15T04:38:51.957Z,1010.39
2018-06-15T04:39:18.119Z,1010.38
2018-06-15T04:39:44.282Z,1010.44
2018-06-15T04:40:10.455Z,1010.4
2018-06-15T04:40:36.592Z,1010.43
2018-06-15T04:41:02.737Z,1010.4
2018-06-15T04:41:28.893Z,1010.41
2018-06-15T04:41:55.029Z,1010.41
2018-06-15T04:42:21.215Z,1010.43
2018-06-15T04:42:47.379Z,1010.41
2018-06-15T04:43:13.522Z,1010.4
2018-06-15T04:43:39.658Z,1010.41
2018-06-15T04:44:05.819Z,1010.42
2018-06-15T04:44:31.956Z,1010.4
2018-06-15T04:44:58.121Z,1010.42
2018-06-15T04:45:24.309Z,1010.42
2018-06-15T04:45:50.396Z,1010.4
2018-06-15T04:46:16.555Z,1010.4
2018-06-15T04:46:42.694Z,1010.41
2018-06-15T04:47:08.855Z,1010.42
2018-06-15T04:47:34.996Z,1010.43
2018-06-15T04:48:01.139Z,1010.4
2018-06-15T04:48:27.300Z,1010.41
2018-06-15T04:48:53.490Z,1010.41
2018-06-15T04:49:19.633Z,1010.42
2018-06-15T04:49:45.798Z,1010.44
2018-06-15T04:50:11.940Z,1010.42
2018-06-15T04:50:38.085Z,1010.48
2018-06-15T04:51:04.245Z,1010.43
2018-06-15T04:51:30.380Z,1010.47
2018-06-15T04:51:56.583Z,1010.47
2018-06-15T04:52:22.695Z,1010.45
2018-06-15T04:52:48.840Z,1010.45
2018-06-15T04:53:14.987Z,1010.44
2018-06-15T04:53:41.142Z,1010.47
2018-06-15T04:54:07.281Z,1010.44
2018-06-15T04:54:33.419Z,1010.44
2018-06-15T04:54:59.558Z,1010.46
2018-06-15T04:55:25.697Z,1010.43
2018-06-15T04:55:51.862Z,1010.45
2018-06-15T04:56:18.052Z,1010.4
2018-06-15T04:56:44.163Z,1010.45
2018-06-15T04:57:10.306Z,1010.42
2018-06-15T04:57:36.445Z,1010.45
2018-06-15T04:58:02.610Z,1010.43
2018-06-15T04:58:28.754Z,1010.41
2018-06-15T04:58:54.888Z,1010.42
2018-06-15T04:59:21.053Z,1010.43
2018-06-15T04:59:47.196Z,1010.45
2018-06-15T05:00:13.332Z,1010.46
2018-06-15T05:00:39.474Z,1010.46
2018-06-15T05:01:05.614Z,1010.47
2018-06-15T05:01:31.776Z,1010.45
2018-06-15T05:01:57.916Z,1010.49
2018-06-15T05:02:24.082Z,1010.5
2018-06-15T05:02:50.252Z,1010.5
2018-06-15T05:03:16.391Z,1010.52
2018-06-15T05:03:42.526Z,1010.5
2018-06-15T05:04:08.658Z,1010.5
2018-06-15T05:04:34.823Z,1010.45
2018-06-15T05:05:00.963Z,1010.5
2018-06-15T05:05:27.100Z,1010.48
2018-06-15T05:05:53.272Z,1010.47
2018-06-15T05:06:19.405Z,1010.46
2018-06-15T05:06:45.554Z,1010.45
2018-06-15T05:07:11.715Z,1010.47
2018-06-15T05:07:37.850Z,1010.5
2018-06-15T05:08:03.989Z,1010.5
2018-06-15T05:08:30.159Z,1010.48
2018-06-15T05:08:56.309Z,1010.49
2018-06-15T05:09:22.449Z,1010.47
2018-06-15T05:09:48.583Z,1010.49
2018-06-15T05:10:14.745Z,1010.54
2018-06-15T05:10:40.888Z,1010.54
2018-06-15T05:11:07.053Z,1010.53
2018-06-15T05:11:33.198Z,1010.51
2018-06-15T05:11:59.336Z,1010.53
2018-06-15T05:12:25.496Z,1010.51
2018-06-15T05:12:51.652Z,1010.58
2018-06-15T05:13:17.793Z,1010.53
2018-06-15T05:13:43.933Z,1010.52
2018-06-15T05:14:10.087Z,1010.52
2018-06-15T05:14:36.229Z,1010.55
2018-06-15T05:15:02.365Z,1010.54
2018-06-15T05:15:28.537Z,1010.53
2018-06-15T05:15:54.675Z,1010.56
2018-06-15T05:16:20.824Z,1010.55
2018-06-15T05:16:47.003Z,1010.55
2018-06-15T05:17:13.181Z,1010.59
2018-06-15T05:17:39.306Z,1010.6
2018-06-15T05:18:05.460Z,1010.57